| Fund (series)↕ | Registrant↕ | Ticker↕ | Latest report↕ | Net assets▲ |
|---|---|---|---|---|
| State Street(R) Industrial Select Sector SPDR(R) Premium … S000093839 | SELECT SECTOR SPDR TRUST CIK 0001064641 | XLII | 2026-03-31 | $5.31M |
| Telecommunications Fund S000003799 |
| — |
| 2026-03-31 |
| $5.34M |
| Bitwise Web3 ETF S000077055 | Bitwise Funds Trust CIK 0001928561 | — | 2026-03-31 | $5.35M |
| Transportation Fund S000003800 | Rydex Series Funds CIK 0000899148 | — | 2026-03-31 | $5.36M |
| Thornburg High Income Bond Managed Account Fund S000091427 | THORNBURG INVESTMENT TRUST CIK 0000816153 | — | 2026-03-31 | $5.42M |
| PGIM Conservative Retirement Spending Fund S000084506 | Prudential Investment Portfolios 12 CIK 0001051562 | — | 2026-03-31 | $5.44M |
| State Street(R) Materials Select Sector SPDR(R) Premium I… S000093840 | SELECT SECTOR SPDR TRUST CIK 0001064641 | XLBI | 2026-03-31 | $5.45M |
| Retailing Fund S000003813 | Rydex Series Funds CIK 0000899148 | — | 2026-03-31 | $5.46M |
| iShares Environmental Infrastructure and Industrials ETF S000077884 | iShares Trust CIK 0001100663 | EFRA | 2026-03-31 | $5.48M |
| S&P SmallCap 600 Pure Value Fund S000003760 | Rydex Series Funds CIK 0000899148 | — | 2026-03-31 | $5.51M |
| TrueShares Active Yield ETF S000092121 | Elevation Series Trust CIK 0001936157 | — | 2026-03-31 | $5.55M |
| Nomura Tax-Free USA ETF S000090016 | Nomura ETF Trust CIK 0001969995 | LTAX | 2026-03-31 | $5.55M |
| WisdomTree India Hedged Equity Fund S000084313 | WisdomTree Trust CIK 0001350487 | INDH | 2026-03-31 | $5.59M |
| USCF Sustainable Battery Metals Strategy Fund S000073701 | USCF ETF Trust CIK 0001597389 | ZSB | 2026-03-31 | $5.59M |
| T-REX 2X Long KTOS Daily Target ETF S000093878 | ETF Opportunities Trust CIK 0001771146 | KTUP | 2026-03-31 | $5.60M |
| PGIM Moderate Retirement Spending Fund S000084505 | Prudential Investment Portfolios 12 CIK 0001051562 | — | 2026-03-31 | $5.62M |
| Amplify Samsung U.S. Natural Gas Infrastructure ETF S000092126 | Amplify ETF Trust CIK 0001633061 | USNG | 2026-03-31 | $5.66M |
| ABSOLUTE CEF OPPORTUNITIES S000081741 | Unified Series Trust CIK 0001199046 | — | 2026-03-31 | $5.67M |
| AST Bond Portfolio 2033 S000074732 | Advanced Series Trust CIK 0000814679 | — | 2026-03-31 | $5.68M |
| PIMCO REALPATH Blend 2070 Fund S000088739 | PIMCO Equity Series CIK 0001479360 | — | 2026-03-31 | $5.70M |
| Simplify Piper Sandler US Small-Cap PLUS Income ETF S000091859 | Simplify Exchange Traded Funds CIK 0001810747 | — | 2026-03-31 | $5.72M |
| Banking Fund S000003758 | Rydex Variable Trust CIK 0001064046 | — | 2026-03-31 | $5.76M |
| Teucrium 2x Daily Wheat ETF S000089252 | Listed Funds Trust CIK 0001683471 | WXET | 2026-03-31 | $5.76M |
| BAYWOOD VALUEPLUS FUND S000042905 | FORUM FUNDS II CIK 0001576367 | — | 2026-03-31 | $5.79M |
| Virtus KAR Small-Mid Cap Growth Fund S000070232 | Virtus Equity Trust CIK 0000034273 | — | 2026-03-31 | $5.80M |
| Perkins Discovery Fund S000038882 | World Funds Trust CIK 0001396092 | — | 2026-03-31 | $5.80M |
| Honeytree U.S. Equity ETF S000082960 | EA Series Trust CIK 0001592900 | BEEZ | 2026-03-31 | $5.80M |
| PROFUND VP U.S. GOVERNMENT PLUS S000003982 | ProFunds CIK 0001039803 | — | 2026-03-31 | $5.81M |
| PROFUND VP REAL ESTATE S000003977 | ProFunds CIK 0001039803 | — | 2026-03-31 | $5.81M |
| Fidelity Sustainable Target Date 2025 Fund S000080307 | Fidelity Aberdeen Street Trust CIK 0000880195 | — | 2026-03-31 | $5.83M |
| WCM Mid Cap Quality Value Fund S000077072 | INVESTMENT MANAGERS SERIES TRUST CIK 0001318342 | — | 2026-03-31 | $5.84M |
| REX Bitcoin Corporate Treasury Convertible Bond ETF S000091103 | ETF Opportunities Trust CIK 0001771146 | — | 2026-03-31 | $5.88M |
| Virtus KAR Small-Mid Cap Value Fund S000072656 | Virtus Equity Trust CIK 0000034273 | — | 2026-03-31 | $5.88M |
| Fidelity Flex Freedom Blend 2015 Fund S000056414 | Fidelity Aberdeen Street Trust CIK 0000880195 | — | 2026-03-31 | $5.91M |
| Russell 2000 1.5x Strategy Fund S000003697 | Rydex Series Funds CIK 0000899148 | — | 2026-03-31 | $5.96M |
| Gabelli High Income ETF S000095379 | Gabelli ETFs Trust CIK 0001748425 | GBHI | 2026-03-31 | $5.97M |
| Bitwise Trendwise Ethereum and Treasuries Rotation Strate… S000081198 | Bitwise Funds Trust CIK 0001928561 | AETH | 2026-03-31 | $5.98M |
| PSF PGIM Ballast Portfolio S000093078 | Prudential Series Fund CIK 0000711175 | — | 2026-03-31 | $5.98M |
| Rivernorth Enhanced Pre-Merger SPAC ETF S000092118 | Elevation Series Trust CIK 0001936157 | RNMN | 2026-03-31 | $6.00M |
| TSW Emerging Markets Fund S000074041 | Perpetual Americas Funds Trust CIK 0001830437 | — | 2026-03-31 | $6.01M |
| VANGUARD TARGET MATURITY 2030 CORPORATE BOND ETF S000101286 | VANGUARD WELLESLEY INCOME FUND CIK 0000105544 | VBCD | 2026-03-31 | $6.02M |
| VANGUARD TARGET MATURITY 2034 CORPORATE BOND ETF S000101290 | VANGUARD WELLESLEY INCOME FUND CIK 0000105544 | VBCH | 2026-03-31 | $6.02M |
| VANGUARD TARGET MATURITY 2032 CORPORATE BOND ETF S000101288 | VANGUARD WELLESLEY INCOME FUND CIK 0000105544 | VBCF | 2026-03-31 | $6.02M |
| VANGUARD TARGET MATURITY 2035 CORPORATE BOND ETF S000101291 | VANGUARD WELLESLEY INCOME FUND CIK 0000105544 | VBCI | 2026-03-31 | $6.03M |
| Horizon Kinetics Energy and Remediation ETF S000079432 | Listed Funds Trust CIK 0001683471 | NVIR | 2026-03-31 | $6.03M |
| VANGUARD TARGET MATURITY 2036 CORPORATE BOND ETF S000101283 | VANGUARD WELLESLEY INCOME FUND CIK 0000105544 | VBCJ | 2026-03-31 | $6.03M |
| S&P SmallCap 600 Pure Growth Fund S000003741 | Rydex Variable Trust CIK 0001064046 | — | 2026-03-31 | $6.05M |
| PGIM Enhanced Retirement Spending Fund S000084504 | Prudential Investment Portfolios 12 CIK 0001051562 | — | 2026-03-31 | $6.07M |
| AST Bond Portfolio 2035 S000083449 | Advanced Series Trust CIK 0000814679 | — | 2026-03-31 | $6.08M |
| Global Climate Action Fund S000083460 | John Hancock Investment Trust CIK 0000022370 | — | 2026-03-31 | $6.20M |